sensor_id;sensor_type;location;lat;lon;timestamp;P1;durP1;ratioP1;P2;durP2;ratioP2
3865;SDS011;1948;53.250;10.412;2023-07-31T00:01:04;13.13;;;2.40;;
3865;SDS011;1948;53.250;10.412;2023-07-31T00:03:31;7.67;;;2.43;;
3865;SDS011;1948;53.250;10.412;2023-07-31T00:06:02;9.43;;;2.50;;
3865;SDS011;1948;53.250;10.412;2023-07-31T00:08:29;3.13;;;2.33;;
3865;SDS011;1948;53.250;10.412;2023-07-31T00:10:59;5.90;;;2.60;;
3865;SDS011;1948;53.250;10.412;2023-07-31T00:13:26;3.60;;;1.97;;
3865;SDS011;1948;53.250;10.412;2023-07-31T00:15:55;4.90;;;2.20;;
3865;SDS011;1948;53.250;10.412;2023-07-31T00:18:25;3.80;;;2.20;;
3865;SDS011;1948;53.250;10.412;2023-07-31T00:20:52;2.97;;;2.37;;
3865;SDS011;1948;53.250;10.412;2023-07-31T00:23:19;3.30;;;2.30;;
3865;SDS011;1948;53.250;10.412;2023-07-31T00:25:48;9.30;;;2.90;;
3865;SDS011;1948;53.250;10.412;2023-07-31T00:28:15;7.30;;;2.60;;
3865;SDS011;1948;53.250;10.412;2023-07-31T00:30:42;3.70;;;2.10;;
3865;SDS011;1948;53.250;10.412;2023-07-31T00:33:09;4.63;;;2.43;;
3865;SDS011;1948;53.250;10.412;2023-07-31T00:35:36;9.10;;;2.03;;
3865;SDS011;1948;53.250;10.412;2023-07-31T00:38:03;5.67;;;2.40;;
3865;SDS011;1948;53.250;10.412;2023-07-31T00:40:35;2.80;;;2.60;;
3865;SDS011;1948;53.250;10.412;2023-07-31T00:43:03;3.20;;;2.60;;
3865;SDS011;1948;53.250;10.412;2023-07-31T00:45:33;4.67;;;2.97;;
3865;SDS011;1948;53.250;10.412;2023-07-31T00:48:00;10.33;;;2.53;;
3865;SDS011;1948;53.250;10.412;2023-07-31T00:50:32;11.63;;;2.53;;
3865;SDS011;1948;53.250;10.412;2023-07-31T00:53:01;4.60;;;2.20;;
3865;SDS011;1948;53.250;10.412;2023-07-31T00:55:28;2.70;;;2.60;;
3865;SDS011;1948;53.250;10.412;2023-07-31T00:57:56;4.43;;;2.97;;
3865;SDS011;1948;53.250;10.412;2023-07-31T01:00:25;9.60;;;3.40;;
3865;SDS011;1948;53.250;10.412;2023-07-31T01:02:52;4.70;;;2.63;;
3865;SDS011;1948;53.250;10.412;2023-07-31T01:05:21;12.30;;;3.67;;
3865;SDS011;1948;53.250;10.412;2023-07-31T01:08:15;8.67;;;2.63;;
3865;SDS011;1948;53.250;10.412;2023-07-31T01:11:07;18.33;;;2.97;;
3865;SDS011;1948;53.250;10.412;2023-07-31T01:13:55;5.50;;;3.00;;
3865;SDS011;1948;53.250;10.412;2023-07-31T01:16:23;6.30;;;2.60;;
3865;SDS011;1948;53.250;10.412;2023-07-31T01:18:56;11.23;;;2.80;;
3865;SDS011;1948;53.250;10.412;2023-07-31T01:24:23;4.43;;;3.80;;
3865;SDS011;1948;53.250;10.412;2023-07-31T01:26:57;5.27;;;2.87;;
3865;SDS011;1948;53.250;10.412;2023-07-31T01:32:39;7.00;;;2.87;;
3865;SDS011;1948;53.250;10.412;2023-07-31T01:35:07;3.37;;;2.80;;
3865;SDS011;1948;53.250;10.412;2023-07-31T01:37:35;6.93;;;2.80;;
3865;SDS011;1948;53.250;10.412;2023-07-31T01:40:02;9.13;;;3.00;;
3865;SDS011;1948;53.250;10.412;2023-07-31T01:42:33;10.83;;;3.23;;
3865;SDS011;1948;53.250;10.412;2023-07-31T01:45:00;6.97;;;2.80;;
3865;SDS011;1948;53.250;10.412;2023-07-31T01:47:27;5.97;;;3.27;;
3865;SDS011;1948;53.250;10.412;2023-07-31T01:49:54;11.43;;;3.57;;
3865;SDS011;1948;53.250;10.412;2023-07-31T01:52:24;5.00;;;2.93;;
3865;SDS011;1948;53.250;10.412;2023-07-31T01:54:51;5.50;;;3.53;;
3865;SDS011;1948;53.250;10.412;2023-07-31T01:57:18;5.80;;;3.10;;
3865;SDS011;1948;53.250;10.412;2023-07-31T01:59:45;6.13;;;2.97;;
3865;SDS011;1948;53.250;10.412;2023-07-31T02:02:15;9.87;;;3.27;;
3865;SDS011;1948;53.250;10.412;2023-07-31T02:04:43;10.10;;;2.90;;
3865;SDS011;1948;53.250;10.412;2023-07-31T02:07:09;6.83;;;2.90;;
3865;SDS011;1948;53.250;10.412;2023-07-31T02:09:36;5.37;;;2.97;;
3865;SDS011;1948;53.250;10.412;2023-07-31T02:12:03;6.47;;;3.30;;
3865;SDS011;1948;53.250;10.412;2023-07-31T02:14:31;3.73;;;3.07;;
3865;SDS011;1948;53.250;10.412;2023-07-31T02:17:00;15.53;;;3.10;;
3865;SDS011;1948;53.250;10.412;2023-07-31T02:19:30;3.80;;;3.00;;
3865;SDS011;1948;53.250;10.412;2023-07-31T02:21:57;8.10;;;3.30;;
3865;SDS011;1948;53.250;10.412;2023-07-31T02:24:24;15.13;;;3.10;;
3865;SDS011;1948;53.250;10.412;2023-07-31T02:26:51;4.30;;;3.43;;
3865;SDS011;1948;53.250;10.412;2023-07-31T02:29:18;3.97;;;3.67;;
3865;SDS011;1948;53.250;10.412;2023-07-31T02:31:45;6.33;;;3.73;;
3865;SDS011;1948;53.250;10.412;2023-07-31T02:34:15;7.23;;;4.07;;
3865;SDS011;1948;53.250;10.412;2023-07-31T02:36:42;7.27;;;4.40;;
3865;SDS011;1948;53.250;10.412;2023-07-31T02:39:12;4.53;;;3.50;;
3865;SDS011;1948;53.250;10.412;2023-07-31T02:41:43;13.00;;;4.70;;
3865;SDS011;1948;53.250;10.412;2023-07-31T02:44:13;4.53;;;4.10;;
3865;SDS011;1948;53.250;10.412;2023-07-31T02:46:40;4.63;;;4.23;;
3865;SDS011;1948;53.250;10.412;2023-07-31T02:49:10;4.93;;;4.63;;
3865;SDS011;1948;53.250;10.412;2023-07-31T02:51:39;10.10;;;4.87;;
3865;SDS011;1948;53.250;10.412;2023-07-31T02:54:09;9.83;;;5.47;;
3865;SDS011;1948;53.250;10.412;2023-07-31T02:56:36;5.67;;;5.30;;
3865;SDS011;1948;53.250;10.412;2023-07-31T02:59:04;6.63;;;5.40;;
3865;SDS011;1948;53.250;10.412;2023-07-31T03:01:33;7.60;;;5.27;;
3865;SDS011;1948;53.250;10.412;2023-07-31T03:04:01;7.00;;;6.40;;
3865;SDS011;1948;53.250;10.412;2023-07-31T03:06:28;7.30;;;6.10;;
3865;SDS011;1948;53.250;10.412;2023-07-31T03:08:59;7.97;;;7.07;;
3865;SDS011;1948;53.250;10.412;2023-07-31T03:11:28;6.70;;;6.27;;
3865;SDS011;1948;53.250;10.412;2023-07-31T03:13:57;14.10;;;6.70;;
3865;SDS011;1948;53.250;10.412;2023-07-31T03:16:25;8.10;;;7.27;;
3865;SDS011;1948;53.250;10.412;2023-07-31T03:18:52;7.90;;;6.80;;
3865;SDS011;1948;53.250;10.412;2023-07-31T03:21:19;8.33;;;5.80;;
3865;SDS011;1948;53.250;10.412;2023-07-31T03:23:48;11.70;;;6.93;;
3865;SDS011;1948;53.250;10.412;2023-07-31T03:26:16;7.63;;;7.03;;
3865;SDS011;1948;53.250;10.412;2023-07-31T03:28:45;5.70;;;5.50;;
3865;SDS011;1948;53.250;10.412;2023-07-31T03:31:12;6.50;;;6.10;;
3865;SDS011;1948;53.250;10.412;2023-07-31T03:33:42;7.07;;;6.40;;
3865;SDS011;1948;53.250;10.412;2023-07-31T03:36:09;7.73;;;6.33;;
3865;SDS011;1948;53.250;10.412;2023-07-31T03:38:36;9.10;;;6.80;;
3865;SDS011;1948;53.250;10.412;2023-07-31T03:41:03;9.43;;;6.67;;
3865;SDS011;1948;53.250;10.412;2023-07-31T03:43:32;12.87;;;6.67;;
3865;SDS011;1948;53.250;10.412;2023-07-31T03:46:02;7.03;;;6.37;;
3865;SDS011;1948;53.250;10.412;2023-07-31T03:48:29;6.77;;;6.17;;
3865;SDS011;1948;53.250;10.412;2023-07-31T03:50:56;9.33;;;6.67;;
3865;SDS011;1948;53.250;10.412;2023-07-31T03:53:23;7.20;;;6.23;;
3865;SDS011;1948;53.250;10.412;2023-07-31T03:55:50;6.17;;;5.57;;
3865;SDS011;1948;53.250;10.412;2023-07-31T03:58:18;6.80;;;5.43;;
3865;SDS011;1948;53.250;10.412;2023-07-31T04:00:45;9.50;;;5.20;;
3865;SDS011;1948;53.250;10.412;2023-07-31T04:03:14;6.27;;;5.50;;
3865;SDS011;1948;53.250;10.412;2023-07-31T04:05:41;6.30;;;5.77;;
3865;SDS011;1948;53.250;10.412;2023-07-31T04:08:08;6.63;;;5.63;;
3865;SDS011;1948;53.250;10.412;2023-07-31T04:10:35;7.37;;;5.87;;
3865;SDS011;1948;53.250;10.412;2023-07-31T04:13:02;5.37;;;4.73;;
3865;SDS011;1948;53.250;10.412;2023-07-31T04:15:29;6.47;;;5.97;;
3865;SDS011;1948;53.250;10.412;2023-07-31T04:17:56;11.90;;;6.40;;
3865;SDS011;1948;53.250;10.412;2023-07-31T04:20:24;5.83;;;5.57;;
3865;SDS011;1948;53.250;10.412;2023-07-31T04:22:53;6.83;;;5.70;;
3865;SDS011;1948;53.250;10.412;2023-07-31T04:25:23;5.90;;;5.60;;
3865;SDS011;1948;53.250;10.412;2023-07-31T04:27:52;6.37;;;6.17;;
3865;SDS011;1948;53.250;10.412;2023-07-31T04:30:19;6.43;;;5.93;;
3865;SDS011;1948;53.250;10.412;2023-07-31T04:32:46;7.27;;;5.80;;
3865;SDS011;1948;53.250;10.412;2023-07-31T04:35:13;10.93;;;6.77;;
3865;SDS011;1948;53.250;10.412;2023-07-31T04:37:40;6.90;;;6.40;;
3865;SDS011;1948;53.250;10.412;2023-07-31T04:40:07;6.17;;;5.77;;
3865;SDS011;1948;53.250;10.412;2023-07-31T04:42:35;6.00;;;5.70;;
3865;SDS011;1948;53.250;10.412;2023-07-31T04:45:02;6.73;;;6.17;;
3865;SDS011;1948;53.250;10.412;2023-07-31T04:47:31;5.93;;;5.67;;
3865;SDS011;1948;53.250;10.412;2023-07-31T04:50:01;6.10;;;5.60;;
3865;SDS011;1948;53.250;10.412;2023-07-31T04:52:28;6.60;;;6.20;;
3865;SDS011;1948;53.250;10.412;2023-07-31T04:54:55;6.40;;;6.10;;
3865;SDS011;1948;53.250;10.412;2023-07-31T04:57:22;6.70;;;5.97;;
3865;SDS011;1948;53.250;10.412;2023-07-31T04:59:51;5.80;;;5.47;;
3865;SDS011;1948;53.250;10.412;2023-07-31T05:02:18;6.03;;;5.63;;
3865;SDS011;1948;53.250;10.412;2023-07-31T05:04:45;6.07;;;5.67;;
3865;SDS011;1948;53.250;10.412;2023-07-31T05:07:15;6.37;;;5.97;;
3865;SDS011;1948;53.250;10.412;2023-07-31T05:09:43;9.37;;;5.70;;
3865;SDS011;1948;53.250;10.412;2023-07-31T05:12:10;5.37;;;5.00;;
3865;SDS011;1948;53.250;10.412;2023-07-31T05:14:39;6.07;;;5.57;;
3865;SDS011;1948;53.250;10.412;2023-07-31T05:17:06;6.27;;;5.77;;
3865;SDS011;1948;53.250;10.412;2023-07-31T05:19:33;6.27;;;5.77;;
3865;SDS011;1948;53.250;10.412;2023-07-31T05:22:01;6.27;;;5.50;;
3865;SDS011;1948;53.250;10.412;2023-07-31T05:24:28;6.90;;;5.20;;
3865;SDS011;1948;53.250;10.412;2023-07-31T05:26:58;5.83;;;5.47;;
3865;SDS011;1948;53.250;10.412;2023-07-31T05:29:29;6.40;;;5.90;;
3865;SDS011;1948;53.250;10.412;2023-07-31T05:31:56;5.03;;;4.83;;
3865;SDS011;1948;53.250;10.412;2023-07-31T05:34:23;6.07;;;5.60;;
3865;SDS011;1948;53.250;10.412;2023-07-31T05:36:52;6.03;;;5.40;;
3865;SDS011;1948;53.250;10.412;2023-07-31T05:39:22;4.90;;;4.80;;
3865;SDS011;1948;53.250;10.412;2023-07-31T05:41:52;7.93;;;5.20;;
3865;SDS011;1948;53.250;10.412;2023-07-31T05:44:19;4.50;;;4.40;;
3865;SDS011;1948;53.250;10.412;2023-07-31T05:46:46;5.17;;;4.97;;
3865;SDS011;1948;53.250;10.412;2023-07-31T05:49:13;15.23;;;4.67;;
3865;SDS011;1948;53.250;10.412;2023-07-31T05:51:43;5.07;;;4.77;;
3865;SDS011;1948;53.250;10.412;2023-07-31T05:54:10;5.20;;;4.90;;
3865;SDS011;1948;53.250;10.412;2023-07-31T05:56:39;5.23;;;4.93;;
3865;SDS011;1948;53.250;10.412;2023-07-31T05:59:08;4.10;;;4.00;;
3865;SDS011;1948;53.250;10.412;2023-07-31T06:01:38;5.30;;;4.40;;
3865;SDS011;1948;53.250;10.412;2023-07-31T06:04:05;5.00;;;4.60;;
3865;SDS011;1948;53.250;10.412;2023-07-31T06:06:32;4.23;;;3.93;;
3865;SDS011;1948;53.250;10.412;2023-07-31T06:08:59;3.30;;;3.20;;
3865;SDS011;1948;53.250;10.412;2023-07-31T06:11:26;3.80;;;3.60;;
3865;SDS011;1948;53.250;10.412;2023-07-31T06:13:55;3.10;;;3.10;;
3865;SDS011;1948;53.250;10.412;2023-07-31T06:16:22;3.43;;;3.20;;
3865;SDS011;1948;53.250;10.412;2023-07-31T06:18:52;3.80;;;3.60;;
3865;SDS011;1948;53.250;10.412;2023-07-31T06:21:19;3.47;;;3.17;;
3865;SDS011;1948;53.250;10.412;2023-07-31T06:23:46;3.00;;;2.70;;
3865;SDS011;1948;53.250;10.412;2023-07-31T06:26:14;2.70;;;2.70;;
3865;SDS011;1948;53.250;10.412;2023-07-31T06:28:44;2.40;;;2.30;;
3865;SDS011;1948;53.250;10.412;2023-07-31T06:31:10;2.67;;;2.67;;
3865;SDS011;1948;53.250;10.412;2023-07-31T06:33:39;2.00;;;2.00;;
3865;SDS011;1948;53.250;10.412;2023-07-31T06:36:06;2.27;;;2.27;;
3865;SDS011;1948;53.250;10.412;2023-07-31T06:38:33;2.40;;;2.20;;
3865;SDS011;1948;53.250;10.412;2023-07-31T06:41:02;2.20;;;2.20;;
3865;SDS011;1948;53.250;10.412;2023-07-31T06:43:30;2.00;;;2.00;;
3865;SDS011;1948;53.250;10.412;2023-07-31T06:46:04;2.53;;;2.53;;
3865;SDS011;1948;53.250;10.412;2023-07-31T06:48:33;12.10;;;2.63;;
3865;SDS011;1948;53.250;10.412;2023-07-31T06:51:03;2.53;;;2.17;;
3865;SDS011;1948;53.250;10.412;2023-07-31T06:53:30;2.20;;;2.20;;
3865;SDS011;1948;53.250;10.412;2023-07-31T06:55:59;2.03;;;1.93;;
3865;SDS011;1948;53.250;10.412;2023-07-31T06:58:26;1.80;;;1.80;;
3865;SDS011;1948;53.250;10.412;2023-07-31T07:00:52;2.37;;;1.87;;
3865;SDS011;1948;53.250;10.412;2023-07-31T07:03:19;1.70;;;1.60;;
3865;SDS011;1948;53.250;10.412;2023-07-31T07:05:46;1.67;;;1.67;;
3865;SDS011;1948;53.250;10.412;2023-07-31T07:08:14;1.80;;;1.70;;
3865;SDS011;1948;53.250;10.412;2023-07-31T07:10:41;4.40;;;2.17;;
3865;SDS011;1948;53.250;10.412;2023-07-31T07:13:08;1.97;;;1.80;;
3865;SDS011;1948;53.250;10.412;2023-07-31T07:15:38;1.70;;;1.63;;
3865;SDS011;1948;53.250;10.412;2023-07-31T07:18:08;1.67;;;1.60;;
3865;SDS011;1948;53.250;10.412;2023-07-31T07:20:37;1.47;;;1.47;;
3865;SDS011;1948;53.250;10.412;2023-07-31T07:23:04;1.73;;;1.73;;
3865;SDS011;1948;53.250;10.412;2023-07-31T07:25:32;1.10;;;1.10;;
3865;SDS011;1948;53.250;10.412;2023-07-31T07:28:03;3.13;;;1.23;;
3865;SDS011;1948;53.250;10.412;2023-07-31T07:30:31;1.70;;;1.60;;
3865;SDS011;1948;53.250;10.412;2023-07-31T07:32:57;1.20;;;1.20;;
3865;SDS011;1948;53.250;10.412;2023-07-31T07:35:27;1.30;;;1.30;;
3865;SDS011;1948;53.250;10.412;2023-07-31T07:37:54;11.50;;;2.17;;
3865;SDS011;1948;53.250;10.412;2023-07-31T07:40:21;1.73;;;1.23;;
3865;SDS011;1948;53.250;10.412;2023-07-31T07:42:49;5.40;;;1.73;;
3865;SDS011;1948;53.250;10.412;2023-07-31T07:45:16;1.67;;;1.67;;
3865;SDS011;1948;53.250;10.412;2023-07-31T07:47:45;1.40;;;1.40;;
3865;SDS011;1948;53.250;10.412;2023-07-31T07:50:17;2.37;;;1.77;;
3865;SDS011;1948;53.250;10.412;2023-07-31T07:52:47;33.47;;;4.40;;
3865;SDS011;1948;53.250;10.412;2023-07-31T07:55:17;1.50;;;1.40;;
3865;SDS011;1948;53.250;10.412;2023-07-31T07:57:43;1.33;;;1.33;;
3865;SDS011;1948;53.250;10.412;2023-07-31T08:00:11;1.50;;;1.50;;
3865;SDS011;1948;53.250;10.412;2023-07-31T08:02:41;2.13;;;1.40;;
3865;SDS011;1948;53.250;10.412;2023-07-31T08:05:09;1.30;;;1.20;;
3865;SDS011;1948;53.250;10.412;2023-07-31T08:07:36;1.17;;;1.17;;
3865;SDS011;1948;53.250;10.412;2023-07-31T08:10:07;1.63;;;1.37;;
3865;SDS011;1948;53.250;10.412;2023-07-31T08:12:34;1.17;;;1.07;;
3865;SDS011;1948;53.250;10.412;2023-07-31T08:15:01;1.10;;;1.10;;
3865;SDS011;1948;53.250;10.412;2023-07-31T08:17:28;2.53;;;1.40;;
3865;SDS011;1948;53.250;10.412;2023-07-31T08:19:58;1.00;;;1.00;;
3865;SDS011;1948;53.250;10.412;2023-07-31T08:22:25;1.30;;;1.30;;
3865;SDS011;1948;53.250;10.412;2023-07-31T08:24:52;0.90;;;0.90;;
3865;SDS011;1948;53.250;10.412;2023-07-31T08:27:22;1.10;;;1.10;;
3865;SDS011;1948;53.250;10.412;2023-07-31T08:29:51;1.03;;;0.90;;
3865;SDS011;1948;53.250;10.412;2023-07-31T08:32:18;7.50;;;1.43;;
3865;SDS011;1948;53.250;10.412;2023-07-31T08:34:45;1.17;;;1.17;;
3865;SDS011;1948;53.250;10.412;2023-07-31T08:37:12;1.37;;;1.37;;
3865;SDS011;1948;53.250;10.412;2023-07-31T08:39:42;6.57;;;1.00;;
3865;SDS011;1948;53.250;10.412;2023-07-31T08:42:12;206.17;;;20.23;;
3865;SDS011;1948;53.250;10.412;2023-07-31T08:44:38;0.93;;;0.93;;
3865;SDS011;1948;53.250;10.412;2023-07-31T08:47:05;3.20;;;1.23;;
3865;SDS011;1948;53.250;10.412;2023-07-31T08:49:33;1.50;;;1.40;;
3865;SDS011;1948;53.250;10.412;2023-07-31T08:52:03;4.90;;;1.27;;
3865;SDS011;1948;53.250;10.412;2023-07-31T08:54:30;2.50;;;1.20;;
3865;SDS011;1948;53.250;10.412;2023-07-31T08:56:59;0.90;;;0.90;;
3865;SDS011;1948;53.250;10.412;2023-07-31T08:59:30;7.67;;;0.80;;
3865;SDS011;1948;53.250;10.412;2023-07-31T09:02:00;5.00;;;1.67;;
3865;SDS011;1948;53.250;10.412;2023-07-31T09:04:32;0.70;;;0.70;;
3865;SDS011;1948;53.250;10.412;2023-07-31T09:07:01;0.87;;;0.87;;
3865;SDS011;1948;53.250;10.412;2023-07-31T09:09:31;1.10;;;1.10;;
3865;SDS011;1948;53.250;10.412;2023-07-31T09:11:58;2.83;;;1.00;;
3865;SDS011;1948;53.250;10.412;2023-07-31T09:14:27;3.53;;;1.30;;
3865;SDS011;1948;53.250;10.412;2023-07-31T09:16:54;1.60;;;1.10;;
3865;SDS011;1948;53.250;10.412;2023-07-31T09:19:34;1.73;;;1.00;;
3865;SDS011;1948;53.250;10.412;2023-07-31T09:22:06;5.13;;;1.20;;
3865;SDS011;1948;53.250;10.412;2023-07-31T09:24:33;1.00;;;1.00;;
3865;SDS011;1948;53.250;10.412;2023-07-31T09:27:01;1.17;;;1.17;;
3865;SDS011;1948;53.250;10.412;2023-07-31T09:29:28;1.73;;;1.63;;
3865;SDS011;1948;53.250;10.412;2023-07-31T09:31:56;1.60;;;1.50;;
3865;SDS011;1948;53.250;10.412;2023-07-31T09:34:36;2.13;;;2.00;;
3865;SDS011;1948;53.250;10.412;2023-07-31T09:37:05;2.73;;;2.20;;
3865;SDS011;1948;53.250;10.412;2023-07-31T09:39:32;6.20;;;5.23;;
3865;SDS011;1948;53.250;10.412;2023-07-31T09:42:13;3.20;;;3.00;;
3865;SDS011;1948;53.250;10.412;2023-07-31T09:44:40;5.57;;;3.20;;
3865;SDS011;1948;53.250;10.412;2023-07-31T09:47:28;5.87;;;4.00;;
3865;SDS011;1948;53.250;10.412;2023-07-31T09:49:57;13.60;;;4.00;;
3865;SDS011;1948;53.250;10.412;2023-07-31T09:52:25;10.23;;;4.53;;
3865;SDS011;1948;53.250;10.412;2023-07-31T09:54:53;6.77;;;5.27;;
3865;SDS011;1948;53.250;10.412;2023-07-31T09:57:21;12.63;;;6.30;;
3865;SDS011;1948;53.250;10.412;2023-07-31T09:59:51;27.60;;;6.90;;
3865;SDS011;1948;53.250;10.412;2023-07-31T10:02:21;12.57;;;6.23;;
3865;SDS011;1948;53.250;10.412;2023-07-31T10:04:49;14.63;;;6.07;;
3865;SDS011;1948;53.250;10.412;2023-07-31T10:07:27;31.40;;;7.50;;
3865;SDS011;1948;53.250;10.412;2023-07-31T10:09:57;12.23;;;6.73;;
3865;SDS011;1948;53.250;10.412;2023-07-31T10:12:32;13.63;;;6.87;;
3865;SDS011;1948;53.250;10.412;2023-07-31T10:15:01;15.57;;;7.30;;
3865;SDS011;1948;53.250;10.412;2023-07-31T10:17:29;14.00;;;7.70;;
3865;SDS011;1948;53.250;10.412;2023-07-31T10:19:58;12.10;;;7.13;;
3865;SDS011;1948;53.250;10.412;2023-07-31T10:22:30;14.33;;;7.10;;
3865;SDS011;1948;53.250;10.412;2023-07-31T10:24:58;15.33;;;7.90;;
3865;SDS011;1948;53.250;10.412;2023-07-31T10:27:28;10.77;;;7.67;;
3865;SDS011;1948;53.250;10.412;2023-07-31T10:29:56;14.70;;;7.30;;
3865;SDS011;1948;53.250;10.412;2023-07-31T10:32:26;23.67;;;7.67;;
3865;SDS011;1948;53.250;10.412;2023-07-31T10:34:54;17.10;;;6.00;;
3865;SDS011;1948;53.250;10.412;2023-07-31T10:37:26;14.90;;;6.60;;
3865;SDS011;1948;53.250;10.412;2023-07-31T10:42:32;15.07;;;7.63;;
3865;SDS011;1948;53.250;10.412;2023-07-31T10:45:03;15.90;;;7.80;;
3865;SDS011;1948;53.250;10.412;2023-07-31T10:48:07;9.17;;;6.50;;
3865;SDS011;1948;53.250;10.412;2023-07-31T10:50:30;22.23;;;7.37;;
3865;SDS011;1948;53.250;10.412;2023-07-31T10:53:04;17.40;;;6.90;;
3865;SDS011;1948;53.250;10.412;2023-07-31T10:55:41;18.77;;;6.80;;
3865;SDS011;1948;53.250;10.412;2023-07-31T10:58:13;11.80;;;6.40;;
3865;SDS011;1948;53.250;10.412;2023-07-31T11:00:41;11.23;;;6.57;;
3865;SDS011;1948;53.250;10.412;2023-07-31T11:03:11;13.50;;;6.70;;
3865;SDS011;1948;53.250;10.412;2023-07-31T11:08:29;11.27;;;6.13;;
3865;SDS011;1948;53.250;10.412;2023-07-31T11:16:17;6.87;;;5.57;;
3865;SDS011;1948;53.250;10.412;2023-07-31T11:18:50;13.90;;;6.73;;
3865;SDS011;1948;53.250;10.412;2023-07-31T11:21:23;8.80;;;6.37;;
3865;SDS011;1948;53.250;10.412;2023-07-31T11:23:52;10.93;;;6.53;;
3865;SDS011;1948;53.250;10.412;2023-07-31T11:26:24;12.93;;;6.43;;
3865;SDS011;1948;53.250;10.412;2023-07-31T11:28:51;11.23;;;6.27;;
3865;SDS011;1948;53.250;10.412;2023-07-31T11:31:21;9.83;;;5.50;;
3865;SDS011;1948;53.250;10.412;2023-07-31T11:33:48;6.57;;;5.03;;
3865;SDS011;1948;53.250;10.412;2023-07-31T11:36:19;8.73;;;5.50;;
3865;SDS011;1948;53.250;10.412;2023-07-31T11:38:51;7.10;;;4.50;;
3865;SDS011;1948;53.250;10.412;2023-07-31T11:41:18;4.77;;;4.23;;
3865;SDS011;1948;53.250;10.412;2023-07-31T11:43:46;4.87;;;4.30;;
3865;SDS011;1948;53.250;10.412;2023-07-31T11:46:14;5.87;;;4.10;;
3865;SDS011;1948;53.250;10.412;2023-07-31T11:48:44;3.67;;;3.53;;
3865;SDS011;1948;53.250;10.412;2023-07-31T11:51:11;3.83;;;3.63;;
3865;SDS011;1948;53.250;10.412;2023-07-31T11:56:21;3.27;;;3.10;;
3865;SDS011;1948;53.250;10.412;2023-07-31T11:58:51;3.30;;;3.07;;
3865;SDS011;1948;53.250;10.412;2023-07-31T12:01:23;3.30;;;3.20;;
3865;SDS011;1948;53.250;10.412;2023-07-31T12:03:54;9.03;;;3.63;;
3865;SDS011;1948;53.250;10.412;2023-07-31T12:06:34;3.50;;;3.37;;
3865;SDS011;1948;53.250;10.412;2023-07-31T12:09:07;3.20;;;3.10;;
3865;SDS011;1948;53.250;10.412;2023-07-31T12:11:43;5.27;;;2.73;;
3865;SDS011;1948;53.250;10.412;2023-07-31T12:16:58;5.47;;;2.87;;
3865;SDS011;1948;53.250;10.412;2023-07-31T12:19:33;2.63;;;2.43;;
3865;SDS011;1948;53.250;10.412;2023-07-31T12:22:10;6.73;;;2.83;;
3865;SDS011;1948;53.250;10.412;2023-07-31T12:24:42;2.60;;;2.50;;
3865;SDS011;1948;53.250;10.412;2023-07-31T12:27:15;2.77;;;2.57;;
3865;SDS011;1948;53.250;10.412;2023-07-31T12:29:44;2.90;;;2.63;;
3865;SDS011;1948;53.250;10.412;2023-07-31T12:32:22;2.80;;;2.70;;
3865;SDS011;1948;53.250;10.412;2023-07-31T12:34:54;2.27;;;2.27;;
3865;SDS011;1948;53.250;10.412;2023-07-31T12:37:30;2.80;;;2.60;;
3865;SDS011;1948;53.250;10.412;2023-07-31T12:40:00;2.17;;;2.03;;
3865;SDS011;1948;53.250;10.412;2023-07-31T12:42:34;2.80;;;2.60;;
3865;SDS011;1948;53.250;10.412;2023-07-31T12:45:03;5.93;;;2.40;;
3865;SDS011;1948;53.250;10.412;2023-07-31T12:47:31;2.20;;;2.20;;
3865;SDS011;1948;53.250;10.412;2023-07-31T12:50:00;2.50;;;2.40;;
3865;SDS011;1948;53.250;10.412;2023-07-31T12:52:30;2.90;;;2.70;;
3865;SDS011;1948;53.250;10.412;2023-07-31T12:54:57;2.00;;;2.00;;
3865;SDS011;1948;53.250;10.412;2023-07-31T12:57:23;2.07;;;2.07;;
3865;SDS011;1948;53.250;10.412;2023-07-31T12:59:53;2.73;;;2.73;;
3865;SDS011;1948;53.250;10.412;2023-07-31T13:02:20;2.67;;;2.50;;
3865;SDS011;1948;53.250;10.412;2023-07-31T13:04:49;3.13;;;3.03;;
3865;SDS011;1948;53.250;10.412;2023-07-31T13:07:20;2.90;;;2.70;;
3865;SDS011;1948;53.250;10.412;2023-07-31T13:09:48;2.80;;;2.80;;
3865;SDS011;1948;53.250;10.412;2023-07-31T13:12:17;2.50;;;2.50;;
3865;SDS011;1948;53.250;10.412;2023-07-31T13:14:45;5.40;;;2.60;;
3865;SDS011;1948;53.250;10.412;2023-07-31T13:17:12;2.93;;;2.70;;
3865;SDS011;1948;53.250;10.412;2023-07-31T13:19:39;4.17;;;3.47;;
3865;SDS011;1948;53.250;10.412;2023-07-31T13:22:08;3.40;;;3.07;;
3865;SDS011;1948;53.250;10.412;2023-07-31T13:24:35;3.20;;;2.93;;
3865;SDS011;1948;53.250;10.412;2023-07-31T13:27:05;2.83;;;2.63;;
3865;SDS011;1948;53.250;10.412;2023-07-31T13:29:35;2.93;;;2.83;;
3865;SDS011;1948;53.250;10.412;2023-07-31T13:32:02;1.83;;;1.83;;
3865;SDS011;1948;53.250;10.412;2023-07-31T13:34:29;2.77;;;2.57;;
3865;SDS011;1948;53.250;10.412;2023-07-31T13:37:01;2.10;;;2.00;;
3865;SDS011;1948;53.250;10.412;2023-07-31T13:39:28;8.17;;;1.70;;
3865;SDS011;1948;53.250;10.412;2023-07-31T13:41:55;6.83;;;2.10;;
3865;SDS011;1948;53.250;10.412;2023-07-31T13:44:22;2.17;;;2.10;;
3865;SDS011;1948;53.250;10.412;2023-07-31T13:46:52;1.80;;;1.80;;
3865;SDS011;1948;53.250;10.412;2023-07-31T13:49:19;2.20;;;2.20;;
3865;SDS011;1948;53.250;10.412;2023-07-31T13:51:48;2.50;;;2.50;;
3865;SDS011;1948;53.250;10.412;2023-07-31T13:54:15;7.10;;;2.00;;
3865;SDS011;1948;53.250;10.412;2023-07-31T13:56:44;2.10;;;2.00;;
3865;SDS011;1948;53.250;10.412;2023-07-31T13:59:14;3.83;;;2.07;;
3865;SDS011;1948;53.250;10.412;2023-07-31T14:01:47;1.77;;;1.67;;
3865;SDS011;1948;53.250;10.412;2023-07-31T14:04:16;1.73;;;1.73;;
3865;SDS011;1948;53.250;10.412;2023-07-31T14:06:46;1.47;;;1.40;;
3865;SDS011;1948;53.250;10.412;2023-07-31T14:09:14;1.73;;;1.70;;
3865;SDS011;1948;53.250;10.412;2023-07-31T14:11:41;1.77;;;1.67;;
3865;SDS011;1948;53.250;10.412;2023-07-31T14:14:11;1.53;;;1.53;;
3865;SDS011;1948;53.250;10.412;2023-07-31T14:16:38;1.70;;;1.70;;
3865;SDS011;1948;53.250;10.412;2023-07-31T14:19:06;8.30;;;1.77;;
3865;SDS011;1948;53.250;10.412;2023-07-31T14:21:35;1.73;;;1.63;;
3865;SDS011;1948;53.250;10.412;2023-07-31T14:24:02;2.10;;;1.67;;
3865;SDS011;1948;53.250;10.412;2023-07-31T14:26:30;5.00;;;2.77;;
3865;SDS011;1948;53.250;10.412;2023-07-31T14:28:57;4.23;;;4.07;;
3865;SDS011;1948;53.250;10.412;2023-07-31T14:31:24;2.57;;;2.50;;
3865;SDS011;1948;53.250;10.412;2023-07-31T14:33:56;2.50;;;2.50;;
3865;SDS011;1948;53.250;10.412;2023-07-31T14:36:23;3.20;;;2.70;;
3865;SDS011;1948;53.250;10.412;2023-07-31T14:38:50;3.53;;;3.20;;
3865;SDS011;1948;53.250;10.412;2023-07-31T14:41:20;3.00;;;2.90;;
3865;SDS011;1948;53.250;10.412;2023-07-31T14:43:47;3.00;;;2.80;;
3865;SDS011;1948;53.250;10.412;2023-07-31T14:46:19;3.47;;;2.93;;
3865;SDS011;1948;53.250;10.412;2023-07-31T14:48:46;4.00;;;3.90;;
3865;SDS011;1948;53.250;10.412;2023-07-31T14:51:13;5.70;;;3.53;;
3865;SDS011;1948;53.250;10.412;2023-07-31T14:53:40;7.87;;;2.90;;
3865;SDS011;1948;53.250;10.412;2023-07-31T14:56:07;3.07;;;2.87;;
3865;SDS011;1948;53.250;10.412;2023-07-31T14:58:34;3.50;;;3.30;;
3865;SDS011;1948;53.250;10.412;2023-07-31T15:01:01;3.17;;;3.07;;
3865;SDS011;1948;53.250;10.412;2023-07-31T15:03:31;3.70;;;2.73;;
3865;SDS011;1948;53.250;10.412;2023-07-31T15:05:58;2.93;;;2.83;;
3865;SDS011;1948;53.250;10.412;2023-07-31T15:08:27;3.13;;;3.10;;
3865;SDS011;1948;53.250;10.412;2023-07-31T15:10:56;3.70;;;3.50;;
3865;SDS011;1948;53.250;10.412;2023-07-31T15:13:28;3.80;;;3.00;;
3865;SDS011;1948;53.250;10.412;2023-07-31T15:15:58;4.37;;;4.17;;
3865;SDS011;1948;53.250;10.412;2023-07-31T15:18:25;4.47;;;4.27;;
3865;SDS011;1948;53.250;10.412;2023-07-31T15:20:53;9.90;;;4.00;;
3865;SDS011;1948;53.250;10.412;2023-07-31T15:23:22;4.17;;;4.07;;
3865;SDS011;1948;53.250;10.412;2023-07-31T15:25:50;3.60;;;3.50;;
3865;SDS011;1948;53.250;10.412;2023-07-31T15:28:18;3.97;;;3.83;;
3865;SDS011;1948;53.250;10.412;2023-07-31T15:30:45;7.17;;;3.50;;
3865;SDS011;1948;53.250;10.412;2023-07-31T15:33:14;3.90;;;3.80;;